createdAt,value
2019-02-26T00:03:42.587Z,632.97
2019-02-26T00:08:51.310Z,649.53
2019-02-26T00:13:54.980Z,656.47
2019-02-26T00:19:02.755Z,638.23
2019-02-26T00:24:09.922Z,551.27
2019-02-26T00:29:14.238Z,523.53
2019-02-26T00:34:19.243Z,487.73
2019-02-26T00:39:25.104Z,434.87
2019-02-26T00:44:32.718Z,281.13
2019-02-26T00:49:37.935Z,306.60
2019-02-26T00:54:42.927Z,318.87
2019-02-26T00:59:48.130Z,345.60
2019-02-26T01:04:53.229Z,434.00
2019-02-26T01:09:59.200Z,409.43
2019-02-26T01:15:07.047Z,459.27
2019-02-26T01:20:13.707Z,538.03
2019-02-26T01:25:22.350Z,482.47
2019-02-26T01:30:27.029Z,477.53
2019-02-26T01:35:33.137Z,484.00
2019-02-26T01:40:41.475Z,527.80
2019-02-26T01:45:46.261Z,466.30
2019-02-26T01:50:52.598Z,465.00
2019-02-26T01:55:58.463Z,481.60
2019-02-26T02:01:03.451Z,511.13
2019-02-26T02:06:11.066Z,484.57
2019-02-26T02:11:15.068Z,466.07
2019-02-26T02:16:21.971Z,458.70
2019-02-26T02:21:29.178Z,372.67
2019-02-26T02:26:34.972Z,483.70
2019-02-26T02:31:40.338Z,363.90
2019-02-26T02:36:45.369Z,372.13
2019-02-26T02:41:51.672Z,327.77
2019-02-26T02:46:58.565Z,310.67
2019-02-26T02:52:04.156Z,303.80
2019-02-26T02:57:10.233Z,314.50
2019-02-26T03:02:17.666Z,296.07
2019-02-26T03:07:23.542Z,345.47
2019-02-26T03:12:28.588Z,392.33
2019-02-26T03:17:33.608Z,429.70
2019-02-26T03:22:41.517Z,417.07
2019-02-26T03:27:45.268Z,419.33
2019-02-26T03:32:55.769Z,398.83
2019-02-26T03:37:58.110Z,397.47
2019-02-26T03:43:04.493Z,440.23
2019-02-26T03:48:10.160Z,390.03
2019-02-26T03:53:15.164Z,304.77
2019-02-26T03:58:20.678Z,321.50
2019-02-26T04:03:25.677Z,314.43
2019-02-26T04:08:30.676Z,278.50
2019-02-26T04:13:35.686Z,265.33
2019-02-26T04:18:41.122Z,278.20
2019-02-26T04:23:46.749Z,277.47
2019-02-26T04:29:03.888Z,259.27
2019-02-26T04:34:13.824Z,255.80
2019-02-26T04:39:47.661Z,248.93
2019-02-26T04:45:38.279Z,218.43
2019-02-26T04:50:44.583Z,178.70
2019-02-26T04:55:49.893Z,189.87
2019-02-26T05:00:54.906Z,178.77
2019-02-26T05:06:02.090Z,215.83
2019-02-26T05:11:06.539Z,204.37
2019-02-26T05:16:11.543Z,242.97
2019-02-26T05:21:16.536Z,206.50
2019-02-26T05:26:21.536Z,253.40
2019-02-26T05:31:26.544Z,252.03
2019-02-26T05:36:33.785Z,250.33
2019-02-26T05:41:40.619Z,288.90
2019-02-26T05:46:47.350Z,307.43
2019-02-26T05:51:53.509Z,341.77
2019-02-26T05:56:58.695Z,311.00
2019-02-26T06:02:03.709Z,344.67
2019-02-26T06:07:09.225Z,372.67
2019-02-26T06:12:16.131Z,345.77
2019-02-26T06:17:21.120Z,351.37
2019-02-26T06:22:27.197Z,377.10
2019-02-26T06:27:32.764Z,390.17
2019-02-26T06:32:39.706Z,398.67
2019-02-26T06:37:44.425Z,404.00
2019-02-26T06:42:49.492Z,364.93
2019-02-26T06:47:56.320Z,374.40
2019-02-26T06:53:04.412Z,387.23
2019-02-26T06:58:27.764Z,415.80
2019-02-26T07:03:32.775Z,399.97
2019-02-26T07:08:38.064Z,417.13
2019-02-26T07:13:43.985Z,405.70
2019-02-26T07:18:49.708Z,351.47
2019-02-26T07:23:56.389Z,361.53
2019-02-26T07:29:03.364Z,409.83
2019-02-26T07:34:07.949Z,435.37
2019-02-26T07:39:15.065Z,438.17
2019-02-26T07:44:21.242Z,357.43
2019-02-26T07:49:26.219Z,293.00
2019-02-26T07:54:31.209Z,294.40
2019-02-26T07:59:36.958Z,315.23
2019-02-26T08:04:43.631Z,327.77
2019-02-26T08:09:49.139Z,349.10
2019-02-26T08:14:54.192Z,389.63
2019-02-26T08:19:59.236Z,397.00
2019-02-26T08:25:05.916Z,399.97
2019-02-26T08:30:14.918Z,413.20
2019-02-26T08:35:20.269Z,386.37
2019-02-26T08:40:25.270Z,379.40
2019-02-26T08:45:31.026Z,391.53
2019-02-26T08:50:38.865Z,457.40
2019-02-26T08:55:43.059Z,581.23
2019-02-26T09:00:48.051Z,500.93
2019-02-26T09:05:53.934Z,547.47
2019-02-26T09:11:00.856Z,470.13
2019-02-26T09:16:07.961Z,574.37
2019-02-26T09:21:15.148Z,619.40
2019-02-26T09:26:19.596Z,500.63
2019-02-26T09:31:24.586Z,529.03
2019-02-26T09:36:29.590Z,542.77
2019-02-26T09:41:35.546Z,449.43
2019-02-26T09:46:43.374Z,450.83
2019-02-26T09:51:47.808Z,419.90
2019-02-26T09:56:52.813Z,399.03
2019-02-26T10:01:58.934Z,442.50
2019-02-26T10:07:06.757Z,403.43
2019-02-26T10:12:15.129Z,363.97
2019-02-26T10:17:19.166Z,253.00
2019-02-26T10:22:26.049Z,269.63
2019-02-26T10:27:33.661Z,354.30
2019-02-26T10:32:37.559Z,334.80
2019-02-26T10:37:47.987Z,335.83
2019-02-26T10:42:53.097Z,358.47
2019-02-26T10:47:59.415Z,256.57
2019-02-26T10:53:09.620Z,197.53
2019-02-26T10:58:13.249Z,235.87
2019-02-26T11:03:20.098Z,257.20
2019-02-26T11:08:28.926Z,306.37
2019-02-26T11:13:31.230Z,314.27
2019-02-26T11:18:37.270Z,325.50
2019-02-26T11:23:44.029Z,332.77
2019-02-26T11:28:49.543Z,271.63
2019-02-26T11:33:56.510Z,290.13
2019-02-26T11:39:02.268Z,278.37
2019-02-26T11:44:12.483Z,197.10
2019-02-26T11:49:16.892Z,176.37
2019-02-26T11:54:21.116Z,175.00
2019-02-26T11:59:26.331Z,130.40
2019-02-26T12:04:31.304Z,149.97
2019-02-26T12:09:38.529Z,163.10
2019-02-26T12:14:44.111Z,173.33
2019-02-26T12:19:51.492Z,158.77
2019-02-26T12:24:58.868Z,203.23
2019-02-26T12:30:02.945Z,387.63
2019-02-26T12:35:09.414Z,357.63
2019-02-26T12:40:16.058Z,370.70
2019-02-26T12:45:21.666Z,377.47
2019-02-26T12:50:29.613Z,384.27
2019-02-26T12:55:35.849Z,435.33
2019-02-26T13:00:42.241Z,362.57
2019-02-26T13:05:49.198Z,413.97
2019-02-26T13:10:56.196Z,520.73
2019-02-26T13:16:01.158Z,519.47
2019-02-26T13:21:11.088Z,538.17
2019-02-26T13:26:14.486Z,519.63
2019-02-26T13:31:22.529Z,508.37
2019-02-26T13:36:27.972Z,516.53
2019-02-26T13:41:38.703Z,519.27
2019-02-26T13:46:40.013Z,502.57
2019-02-26T13:51:47.590Z,477.10
2019-02-26T13:56:52.384Z,430.33
2019-02-26T14:01:57.418Z,409.87
2019-02-26T14:07:02.422Z,414.93
2019-02-26T14:12:07.502Z,324.73
2019-02-26T14:17:12.653Z,275.73
2019-02-26T14:22:36.905Z,287.50
2019-02-26T14:27:41.971Z,263.27
2019-02-26T14:32:46.978Z,219.97
2019-02-26T14:37:51.993Z,221.77
2019-02-26T14:42:57.293Z,215.27
2019-02-26T14:48:02.320Z,212.03
2019-02-26T14:53:07.329Z,230.13
2019-02-26T14:58:12.362Z,222.17
2019-02-26T15:03:17.380Z,226.53
2019-02-26T15:08:22.477Z,213.17
2019-02-26T15:13:27.528Z,222.10
2019-02-26T15:18:32.614Z,225.33
2019-02-26T15:23:37.611Z,252.17
2019-02-26T15:28:42.633Z,226.20
2019-02-26T15:33:47.641Z,237.40
2019-02-26T15:38:52.674Z,242.33
2019-02-26T15:43:57.708Z,236.43
2019-02-26T15:49:02.707Z,217.53
2019-02-26T15:54:07.718Z,232.53
2019-02-26T15:59:12.765Z,245.47
2019-02-26T16:04:17.825Z,252.57
2019-02-26T16:09:23.129Z,266.07
2019-02-26T16:14:28.149Z,271.77
2019-02-26T16:19:33.257Z,260.60
2019-02-26T16:24:38.644Z,278.90
2019-02-26T16:29:43.955Z,244.30
2019-02-26T16:34:52.194Z,250.53
2019-02-26T16:39:56.011Z,243.97
2019-02-26T16:45:02.566Z,231.67
2019-02-26T16:50:12.894Z,224.20
2019-02-26T16:55:17.264Z,227.87
2019-02-26T17:00:23.215Z,259.07
2019-02-26T17:05:28.248Z,291.03
2019-02-26T17:10:33.682Z,296.40
2019-02-26T17:15:38.717Z,292.80
2019-02-26T17:20:44.118Z,282.37
2019-02-26T17:25:49.293Z,280.17
2019-02-26T17:30:57.410Z,283.73
2019-02-26T17:36:02.003Z,283.10
2019-02-26T17:41:09.952Z,311.50
2019-02-26T17:46:14.387Z,325.53
2019-02-26T17:51:19.623Z,360.97
2019-02-26T17:56:26.687Z,427.57
2019-02-26T18:01:31.313Z,429.20
2019-02-26T18:06:36.370Z,420.10
2019-02-26T18:11:41.433Z,388.43
2019-02-26T18:16:46.663Z,394.63
2019-02-26T18:21:51.842Z,366.13
2019-02-26T18:26:56.833Z,323.13
2019-02-26T18:32:02.513Z,300.97
2019-02-26T18:37:07.548Z,257.33
2019-02-26T18:42:12.557Z,251.37
2019-02-26T18:47:17.610Z,246.30
2019-02-26T18:52:22.656Z,388.63
2019-02-26T18:57:28.005Z,393.67
2019-02-26T19:02:33.519Z,403.33
2019-02-26T19:07:39.664Z,418.07
2019-02-26T19:12:44.718Z,446.57
2019-02-26T19:17:53.021Z,438.77
2019-02-26T19:22:58.897Z,448.87
2019-02-26T19:28:04.552Z,447.17
2019-02-26T19:33:09.561Z,480.60
2019-02-26T19:38:14.586Z,420.60
2019-02-26T19:43:19.738Z,415.07
2019-02-26T19:48:24.737Z,382.23
2019-02-26T19:53:29.736Z,414.23
2019-02-26T19:58:34.752Z,463.97
2019-02-26T20:03:40.735Z,442.77
2019-02-26T20:08:47.241Z,347.00
2019-02-26T20:13:52.621Z,361.60
2019-02-26T20:18:59.077Z,402.93
2019-02-26T20:24:04.457Z,439.57
2019-02-26T20:29:09.465Z,487.70
2019-02-26T20:34:14.461Z,444.13
2019-02-26T20:39:19.473Z,425.20
2019-02-26T20:44:24.491Z,441.67
2019-02-26T20:49:29.501Z,474.20
2019-02-26T20:54:34.563Z,513.20
2019-02-26T20:59:40.411Z,576.07
2019-02-26T21:04:45.553Z,657.37
2019-02-26T21:09:50.784Z,574.93
2019-02-26T21:14:55.822Z,593.37
2019-02-26T21:20:00.949Z,534.50
2019-02-26T21:25:08.461Z,543.97
2019-02-26T21:30:14.849Z,519.83
2019-02-26T21:35:21.162Z,506.07
2019-02-26T21:40:26.453Z,471.90
2019-02-26T21:45:31.470Z,445.40
2019-02-26T21:50:36.473Z,447.93
2019-02-26T21:55:44.394Z,414.73
2019-02-26T22:00:48.148Z,400.17
2019-02-26T22:05:53.520Z,404.93
2019-02-26T22:10:58.538Z,230.43
2019-02-26T22:16:03.589Z,199.27
2019-02-26T22:21:08.597Z,185.17
2019-02-26T22:26:13.614Z,186.37
2019-02-26T22:31:19.198Z,201.23
2019-02-26T22:36:26.026Z,206.80
2019-02-26T22:41:32.777Z,224.00
2019-02-26T22:46:37.662Z,210.70
2019-02-26T22:51:42.710Z,201.13
2019-02-26T22:56:47.785Z,209.20
2019-02-26T23:01:54.044Z,214.27
2019-02-26T23:06:59.070Z,192.43
2019-02-26T23:12:05.717Z,189.00
2019-02-26T23:17:11.025Z,206.93
2019-02-26T23:22:16.640Z,189.60
2019-02-26T23:27:21.673Z,197.33
2019-02-26T23:32:27.980Z,177.97
2019-02-26T23:37:34.515Z,176.23
2019-02-26T23:42:39.724Z,164.27
2019-02-26T23:47:44.925Z,173.93
2019-02-26T23:52:49.935Z,175.80
2019-02-26T23:57:57.744Z,213.33
